METAR Data
IDs: Format: Raw Decoded Include TAF

Data at: 2053 UTC 21 Sep 2021

KBPK 211953Z AUTO VRB03KT 10SM BKN020 BKN025 OVC030 18/16 A3015 RMK AO2 RAE17 SLP202 P0000 T01780156
KBPK 211910Z AUTO 00000KT 6SM -RA BR FEW009 SCT015 OVC021 17/16 A3015 RMK AO2 P0000 T01720156
KBPK 211900Z AUTO VRB04KT 2 1/2SM -RA BR SCT007 OVC015 17/16 A3015 RMK AO2 P0000 T01720156
KBPK 211853Z AUTO 36004KT 2 1/2SM -RA BR FEW007 BKN013 OVC019 17/16 A3015 RMK AO2 RAB33 SLP203 P0001 T01720161
KBPK 211839Z AUTO VRB05KT 2 1/2SM -RA BR FEW007 OVC015 18/16 A3015 RMK AO2 VIS 2V5 RAB33 P0000 T01780156
KBPK 211832Z AUTO VRB05KT 6SM HZ OVC015 18/15 A3014 RMK AO2 T01830150
KBPK 211753Z AUTO 36005KT 10SM OVC013 18/16 A3014 RMK AO2 SLP198 60013 T01830156 10206 20183 51021
KBPK 211653Z AUTO VRB05KT 10SM BKN012 OVC022 19/16 A3012 RMK AO2 SLP192 T01940161
KBPK 211614Z AUTO VRB06KT 10SM OVC010 19/17 A3011 RMK AO2 CIG 007V014 T01940167
KBPK 211553Z AUTO VRB03KT 10SM OVC008 19/17 A3010 RMK AO2 CIG 005V012 SLP185 T01940172
KBPK 211453Z AUTO 01005KT 10SM BKN008 OVC015 19/17 A3007 RMK AO2 RAE1355 CIG 003V011 SLP176 P0000 60013 T01890172 58001
KBPK 211401Z AUTO VRB03KT 10SM OVC006 19/18 A3008 RMK AO2 RAE1355 CIG 002V009 P0000 T01940183
KBPK 211353Z AUTO 35005KT 10SM -RA BKN004 OVC009 19/18 A3008 RMK AO2 CIG 002V007 SLP175 P0003 T01940183
KBPK 211348Z AUTO VRB06KT 10SM -RA OVC004 19/19 A3008 RMK AO2 CIG 002V008 P0003
KBPK 211341Z AUTO VRB03KT 10SM -RA SCT004 OVC008 19/19 A3008 RMK AO2 P0003 T01940189
KBPK 211253Z AUTO VRB03KT 8SM -RA BKN002 OVC110 19/19 A3008 RMK AO2 LTG DSNT SW AND W TSE10 SLP176 P0010 T01940189
KBPK 211242Z AUTO 00000KT 7SM -RA BKN002 OVC110 19/19 A3007 RMK AO2 LTG DSNT S-W TSE10 P0010 T01940189
KBPK 211221Z AUTO 23006KT 8SM VCTS -RA BKN002 BKN034 OVC100 19/19 A3006 RMK AO2 LTG DSNT E-SW TSE10 PRESRR P0009 T01940189
KBPK 211210Z AUTO 17004KT 7SM -RA FEW002 BKN028 OVC100 19/19 A3004 RMK AO2 LTG DSNT ALQDS TSE10 P0009 T01940189
KBPK 211204Z AUTO 19005KT 2SM -TSRA BR FEW018 BKN029 OVC100 19/19 A3004 RMK AO2 LTG DSNT ALQDS P0008 T01940189
KBPK 211153Z AUTO 00000KT 3/4SM +TSRA BR FEW013 BKN018 OVC025 19/19 A3005 RMK AO2 LTG DSNT NE AND SW AND W RAB13 TSB34 SLP166 P0031 60069 70069 T01940189 10244 20194 53031
KBPK 211149Z AUTO VRB03KT 1 3/4SM +TSRA BR SCT015 BKN022 OVC027 20/19 A3007 RMK AO2 LTG DSNT NE AND SW AND W RAB13 TSB34 P0017
KBPK 211140Z AUTO 00000KT 10SM -TSRA SCT022 BKN028 OVC050 20/19 A3005 RMK AO2 LTG DSNT ALQDS RAB13 TSB34 P0001 T02000189
KBPK 211128Z AUTO 35003KT 6SM VCTS -RA BR FEW002 BKN028 OVC055 19/19 A3005 RMK AO2 LTG DSNT ALQDS RAB13 P0001 T01940189
KBPK 211053Z AUTO 30003KT 10SM SCT060 BKN110 19/19 A3001 RMK AO2 LTG DSNT SW-N RAE51 PRESRR SLP149 P0004 T01940189
KBPK 210953Z AUTO 15006KT 6SM RA BR BKN110 20/19 A2996 RMK AO2 LTG DSNT S AND SW SLP133 P0006 T02000189
KBPK 210942Z AUTO 22003KT 7SM RA SCT110 20/19 A2999 RMK AO2 LTG DSNT SE-SW P0004 T02000189
KBPK 210927Z AUTO VRB03KT 7SM VCTS -RA SCT120 20/19 A2999 RMK AO2 LTG DSNT SE AND S AND NW P0002 T02000189
KBPK 210916Z AUTO VRB03KT 9SM -RA SCT120 20/19 A2998 RMK AO2 LTG DSNT SE-SW P0000 T02000194
KBPK 210853Z AUTO 27005KT 10SM VCTS -RA SCT110 21/19 A2996 RMK AO2 LTG DSNT ALQDS RAB0756 TSB0758E35 SLP133 P0028 60028 T02060194 50010
KBPK 210841Z AUTO 00000KT 9SM VCTS -RA FEW049 SCT110 21/19 A2993 RMK AO2 LTG DSNT ALQDS RAB0756 TSB0758E35 PRESFR P0027 T02060194
KBPK 210827Z AUTO 13003KT 3SM TSRA BR SCT048 BKN075 OVC110 21/19 A2996 RMK AO2 LTG DSNT ALQDS RAB0756 TSB0758 P0027 T02060194
KBPK 210816Z AUTO 00000KT 1 3/4SM +TSRA BR SCT041 BKN070 OVC085 21/19 A2996 RMK AO2 VIS 3/4V5 LTG DSNT ALQDS RAB0756 TSB0758 P0018 T02060194
KBPK 210804Z AUTO 26007KT 6SM +TSRA FEW026 BKN070 OVC085 22/19 A3000 RMK AO2 LTG DSNT ALQDS RAB0756 TSB0758 PRESRR P0004 T02220189
KBPK 210753Z AUTO 34003KT 10SM VCTS SCT027 BKN032 OVC060 24/19 A2997 RMK AO2 LTG DSNT ALQDS SLP135 T02390194
KBPK 210741Z AUTO 00000KT 10SM VCTS OVC032 24/20 A2996 RMK AO2 LTG DSNT ALQDS T02390200
KBPK 210653Z AUTO 33003KT 10SM SCT075 24/19 A2995 RMK AO2 LTG DSNT W-N PRESRR SLP128 T02390194
KBPK 210553Z AUTO 00000KT 10SM CLR 24/19 A2993 RMK AO2 SLP122 T02390189 10289 20233 403330194 53008
KBPK 210453Z AUTO 16003KT 10SM CLR 24/19 A2991 RMK AO2 SLP119 T02440189
KBPK 210353Z AUTO 17007KT 10SM CLR 24/19 A2989 RMK AO2 SLP109 T02440189
KBPK 210253Z AUTO 17005KT 10SM CLR 25/18 A2990 RMK AO2 SLP115 T02500183 53015
KBPK 210153Z AUTO 17004KT 10SM CLR 26/18 A2989 RMK AO2 SLP111 T02610183
KBPK 210053Z AUTO 19004KT 10SM CLR 27/18 A2986 RMK AO2 SLP101 T02720183
KBPK 202353Z AUTO 20006KT 10SM CLR 29/18 A2986 RMK AO2 SLP100 T02890178 10333 20289 55000
KBPK 202253Z AUTO 19007KT 10SM CLR 31/18 A2985 RMK AO2 SLP095 T03110178
KBPK 202153Z AUTO 18007KT 10SM CLR 32/18 A2985 RMK AO2 SLP097 T03170178